Scott City, Kansas
Current Conditions -  °F | °C
As of 12:54 AM on Monday 24 Nov 2014 (Local Time) from KGCK Reporting Station
Clear Clear  
Wind Chill: 21°   Ceiling: Unl
Heat Index: 30°   Visibility: 10mi
Dew Point: 13°   Wind: 12mph
Humidity: 49%   Direction: 300°WNW
Pressure: 29.84"   Gusts: NA
Location:  38.48°N, 100.91°W
Report Text: KGCK 240654Z AUTO 30010KT 10SM CLR M01/M11 A2984 RMK AO2 SLP115 T10111106
Loading
Personal Weather Stations






























Interactive Weather Map New forecast layout! Learn more

10-Day Weather Forecast

Advertisements
Track Severe Weather on mobile